sensor_id;sensor_type;location;lat;lon;timestamp;P1;durP1;ratioP1;P2;durP2;ratioP2
44722;SDS011;30451;48.638;10.624;2022-10-31T00:02:09;5.00;;;2.33;;
44722;SDS011;30451;48.638;10.624;2022-10-31T00:04:35;5.30;;;2.38;;
44722;SDS011;30451;48.638;10.624;2022-10-31T00:07:01;3.72;;;2.50;;
44722;SDS011;30451;48.638;10.624;2022-10-31T00:09:26;4.57;;;2.20;;
44722;SDS011;30451;48.638;10.624;2022-10-31T00:11:52;3.55;;;2.40;;
44722;SDS011;30451;48.638;10.624;2022-10-31T00:14:17;3.90;;;2.08;;
44722;SDS011;30451;48.638;10.624;2022-10-31T00:16:43;4.18;;;2.17;;
44722;SDS011;30451;48.638;10.624;2022-10-31T00:19:09;3.28;;;1.92;;
44722;SDS011;30451;48.638;10.624;2022-10-31T00:21:34;3.50;;;2.13;;
44722;SDS011;30451;48.638;10.624;2022-10-31T00:24:00;3.13;;;2.10;;
44722;SDS011;30451;48.638;10.624;2022-10-31T00:26:30;3.28;;;1.80;;
44722;SDS011;30451;48.638;10.624;2022-10-31T00:28:56;4.32;;;2.20;;
44722;SDS011;30451;48.638;10.624;2022-10-31T00:31:23;3.55;;;2.00;;
44722;SDS011;30451;48.638;10.624;2022-10-31T00:33:49;4.40;;;2.20;;
44722;SDS011;30451;48.638;10.624;2022-10-31T00:36:15;3.08;;;1.95;;
44722;SDS011;30451;48.638;10.624;2022-10-31T00:38:43;3.85;;;1.98;;
44722;SDS011;30451;48.638;10.624;2022-10-31T00:41:10;3.05;;;1.67;;
44722;SDS011;30451;48.638;10.624;2022-10-31T00:43:36;2.97;;;1.83;;
44722;SDS011;30451;48.638;10.624;2022-10-31T00:46:02;4.07;;;1.92;;
44722;SDS011;30451;48.638;10.624;2022-10-31T00:48:27;3.95;;;2.20;;
44722;SDS011;30451;48.638;10.624;2022-10-31T00:50:53;3.42;;;2.20;;
44722;SDS011;30451;48.638;10.624;2022-10-31T00:53:19;3.22;;;1.98;;
44722;SDS011;30451;48.638;10.624;2022-10-31T00:55:45;2.95;;;1.80;;
44722;SDS011;30451;48.638;10.624;2022-10-31T00:58:11;3.40;;;1.85;;
44722;SDS011;30451;48.638;10.624;2022-10-31T01:00:36;4.00;;;1.80;;
44722;SDS011;30451;48.638;10.624;2022-10-31T01:03:02;4.22;;;1.95;;
44722;SDS011;30451;48.638;10.624;2022-10-31T01:05:28;4.43;;;2.10;;
44722;SDS011;30451;48.638;10.624;2022-10-31T01:07:53;2.70;;;1.60;;
44722;SDS011;30451;48.638;10.624;2022-10-31T01:10:19;4.10;;;2.00;;
44722;SDS011;30451;48.638;10.624;2022-10-31T01:12:46;3.53;;;1.90;;
44722;SDS011;30451;48.638;10.624;2022-10-31T01:15:13;3.15;;;1.90;;
44722;SDS011;30451;48.638;10.624;2022-10-31T01:17:44;3.38;;;2.00;;
44722;SDS011;30451;48.638;10.624;2022-10-31T01:20:10;3.55;;;1.90;;
44722;SDS011;30451;48.638;10.624;2022-10-31T01:22:36;2.90;;;1.90;;
44722;SDS011;30451;48.638;10.624;2022-10-31T01:25:02;3.70;;;1.80;;
44722;SDS011;30451;48.638;10.624;2022-10-31T01:27:28;3.03;;;1.80;;
44722;SDS011;30451;48.638;10.624;2022-10-31T01:29:53;3.28;;;2.00;;
44722;SDS011;30451;48.638;10.624;2022-10-31T01:32:19;3.78;;;1.73;;
44722;SDS011;30451;48.638;10.624;2022-10-31T01:34:44;2.95;;;1.88;;
44722;SDS011;30451;48.638;10.624;2022-10-31T01:37:10;3.67;;;1.70;;
44722;SDS011;30451;48.638;10.624;2022-10-31T01:39:36;2.90;;;1.77;;
44722;SDS011;30451;48.638;10.624;2022-10-31T01:42:01;3.35;;;1.95;;
44722;SDS011;30451;48.638;10.624;2022-10-31T01:49:25;2.70;;;1.80;;
44722;SDS011;30451;48.638;10.624;2022-10-31T01:52:03;2.70;;;1.58;;
44722;SDS011;30451;48.638;10.624;2022-10-31T01:54:51;2.88;;;1.70;;
44722;SDS011;30451;48.638;10.624;2022-10-31T01:57:30;2.60;;;1.45;;
44722;SDS011;30451;48.638;10.624;2022-10-31T01:59:59;3.30;;;1.75;;
44722;SDS011;30451;48.638;10.624;2022-10-31T02:02:29;2.35;;;1.50;;
44722;SDS011;30451;48.638;10.624;2022-10-31T02:04:56;2.83;;;1.80;;
44722;SDS011;30451;48.638;10.624;2022-10-31T02:07:32;2.83;;;1.70;;
44722;SDS011;30451;48.638;10.624;2022-10-31T02:10:03;3.13;;;1.58;;
44722;SDS011;30451;48.638;10.624;2022-10-31T02:12:30;2.40;;;1.50;;
44722;SDS011;30451;48.638;10.624;2022-10-31T02:14:57;3.08;;;1.63;;
44722;SDS011;30451;48.638;10.624;2022-10-31T02:17:24;2.92;;;1.80;;
44722;SDS011;30451;48.638;10.624;2022-10-31T02:20:11;2.70;;;1.63;;
44722;SDS011;30451;48.638;10.624;2022-10-31T02:31:12;3.05;;;1.65;;
44722;SDS011;30451;48.638;10.624;2022-10-31T02:39:08;2.40;;;1.60;;
44722;SDS011;30451;48.638;10.624;2022-10-31T02:44:35;2.85;;;1.60;;
44722;SDS011;30451;48.638;10.624;2022-10-31T02:47:12;2.95;;;1.80;;
44722;SDS011;30451;48.638;10.624;2022-10-31T02:49:50;3.13;;;1.85;;
44722;SDS011;30451;48.638;10.624;2022-10-31T02:52:27;2.70;;;1.45;;
44722;SDS011;30451;48.638;10.624;2022-10-31T02:54:54;2.70;;;1.77;;
44722;SDS011;30451;48.638;10.624;2022-10-31T02:57:24;3.50;;;1.60;;
44722;SDS011;30451;48.638;10.624;2022-10-31T02:59:56;2.45;;;1.70;;
44722;SDS011;30451;48.638;10.624;2022-10-31T03:05:23;2.90;;;1.80;;
44722;SDS011;30451;48.638;10.624;2022-10-31T03:10:58;2.85;;;1.73;;
44722;SDS011;30451;48.638;10.624;2022-10-31T03:13:35;3.50;;;1.50;;
44722;SDS011;30451;48.638;10.624;2022-10-31T03:16:10;2.67;;;1.58;;
44722;SDS011;30451;48.638;10.624;2022-10-31T03:18:43;2.50;;;1.60;;
44722;SDS011;30451;48.638;10.624;2022-10-31T03:21:36;2.47;;;1.83;;
44722;SDS011;30451;48.638;10.624;2022-10-31T03:24:07;2.95;;;1.63;;
44722;SDS011;30451;48.638;10.624;2022-10-31T03:26:35;2.50;;;1.63;;
44722;SDS011;30451;48.638;10.624;2022-10-31T03:29:06;3.00;;;1.70;;
44722;SDS011;30451;48.638;10.624;2022-10-31T03:31:35;2.78;;;1.70;;
44722;SDS011;30451;48.638;10.624;2022-10-31T03:34:06;3.05;;;2.05;;
44722;SDS011;30451;48.638;10.624;2022-10-31T03:36:34;3.08;;;1.90;;
44722;SDS011;30451;48.638;10.624;2022-10-31T03:39:03;2.22;;;1.38;;
44722;SDS011;30451;48.638;10.624;2022-10-31T03:41:31;2.80;;;1.60;;
44722;SDS011;30451;48.638;10.624;2022-10-31T03:44:05;3.53;;;1.65;;
44722;SDS011;30451;48.638;10.624;2022-10-31T03:46:35;3.50;;;1.80;;
44722;SDS011;30451;48.638;10.624;2022-10-31T03:49:01;2.70;;;1.77;;
44722;SDS011;30451;48.638;10.624;2022-10-31T03:51:41;2.47;;;1.60;;
44722;SDS011;30451;48.638;10.624;2022-10-31T03:54:30;3.08;;;1.70;;
44722;SDS011;30451;48.638;10.624;2022-10-31T03:57:05;3.00;;;1.85;;
44722;SDS011;30451;48.638;10.624;2022-10-31T03:59:53;2.67;;;1.73;;
44722;SDS011;30451;48.638;10.624;2022-10-31T04:02:26;2.58;;;1.70;;
44722;SDS011;30451;48.638;10.624;2022-10-31T04:04:56;2.88;;;1.60;;
44722;SDS011;30451;48.638;10.624;2022-10-31T04:07:23;2.72;;;1.70;;
44722;SDS011;30451;48.638;10.624;2022-10-31T04:09:54;2.22;;;1.70;;
44722;SDS011;30451;48.638;10.624;2022-10-31T04:12:22;2.30;;;1.58;;
44722;SDS011;30451;48.638;10.624;2022-10-31T04:14:51;2.58;;;1.65;;
44722;SDS011;30451;48.638;10.624;2022-10-31T04:17:19;3.42;;;1.70;;
44722;SDS011;30451;48.638;10.624;2022-10-31T04:19:48;2.63;;;1.60;;
44722;SDS011;30451;48.638;10.624;2022-10-31T04:22:13;2.40;;;1.38;;
44722;SDS011;30451;48.638;10.624;2022-10-31T04:24:39;2.38;;;1.60;;
44722;SDS011;30451;48.638;10.624;2022-10-31T04:27:05;2.58;;;1.50;;
44722;SDS011;30451;48.638;10.624;2022-10-31T04:29:31;3.25;;;1.80;;
44722;SDS011;30451;48.638;10.624;2022-10-31T04:31:56;2.50;;;1.60;;
44722;SDS011;30451;48.638;10.624;2022-10-31T04:34:22;2.22;;;1.33;;
44722;SDS011;30451;48.638;10.624;2022-10-31T04:36:48;2.53;;;1.50;;
44722;SDS011;30451;48.638;10.624;2022-10-31T04:39:13;2.28;;;1.52;;
44722;SDS011;30451;48.638;10.624;2022-10-31T04:41:39;2.95;;;1.52;;
44722;SDS011;30451;48.638;10.624;2022-10-31T04:44:04;2.70;;;1.55;;
44722;SDS011;30451;48.638;10.624;2022-10-31T04:46:30;2.42;;;1.50;;
44722;SDS011;30451;48.638;10.624;2022-10-31T04:48:56;2.65;;;1.63;;
44722;SDS011;30451;48.638;10.624;2022-10-31T04:51:21;2.33;;;1.50;;
44722;SDS011;30451;48.638;10.624;2022-10-31T04:53:47;2.13;;;1.30;;
44722;SDS011;30451;48.638;10.624;2022-10-31T04:56:13;2.17;;;1.30;;
44722;SDS011;30451;48.638;10.624;2022-10-31T04:58:38;2.15;;;1.50;;
44722;SDS011;30451;48.638;10.624;2022-10-31T05:01:04;2.38;;;1.42;;
44722;SDS011;30451;48.638;10.624;2022-10-31T05:03:29;1.83;;;1.38;;
44722;SDS011;30451;48.638;10.624;2022-10-31T05:05:55;2.45;;;1.60;;
44722;SDS011;30451;48.638;10.624;2022-10-31T05:08:21;2.15;;;1.60;;
44722;SDS011;30451;48.638;10.624;2022-10-31T05:10:46;2.15;;;1.33;;
44722;SDS011;30451;48.638;10.624;2022-10-31T05:13:12;2.22;;;1.48;;
44722;SDS011;30451;48.638;10.624;2022-10-31T05:15:39;1.80;;;1.25;;
44722;SDS011;30451;48.638;10.624;2022-10-31T05:18:05;2.25;;;1.50;;
44722;SDS011;30451;48.638;10.624;2022-10-31T05:20:30;2.20;;;1.40;;
44722;SDS011;30451;48.638;10.624;2022-10-31T05:22:57;2.13;;;1.40;;
44722;SDS011;30451;48.638;10.624;2022-10-31T05:25:23;2.78;;;1.50;;
44722;SDS011;30451;48.638;10.624;2022-10-31T05:27:51;2.38;;;1.50;;
44722;SDS011;30451;48.638;10.624;2022-10-31T05:30:21;2.10;;;1.35;;
44722;SDS011;30451;48.638;10.624;2022-10-31T05:32:53;2.70;;;1.58;;
44722;SDS011;30451;48.638;10.624;2022-10-31T05:35:20;2.20;;;1.40;;
44722;SDS011;30451;48.638;10.624;2022-10-31T05:37:47;1.90;;;1.20;;
44722;SDS011;30451;48.638;10.624;2022-10-31T05:40:13;2.30;;;1.33;;
44722;SDS011;30451;48.638;10.624;2022-10-31T05:42:40;2.13;;;1.30;;
44722;SDS011;30451;48.638;10.624;2022-10-31T05:45:08;2.20;;;1.65;;
44722;SDS011;30451;48.638;10.624;2022-10-31T05:47:35;2.47;;;1.30;;
44722;SDS011;30451;48.638;10.624;2022-10-31T05:50:00;2.05;;;1.33;;
44722;SDS011;30451;48.638;10.624;2022-10-31T05:52:26;1.88;;;1.20;;
44722;SDS011;30451;48.638;10.624;2022-10-31T05:54:52;2.17;;;1.33;;
44722;SDS011;30451;48.638;10.624;2022-10-31T05:57:17;2.35;;;1.40;;
44722;SDS011;30451;48.638;10.624;2022-10-31T05:59:43;2.03;;;1.40;;
44722;SDS011;30451;48.638;10.624;2022-10-31T06:02:08;2.00;;;1.30;;
44722;SDS011;30451;48.638;10.624;2022-10-31T06:04:34;2.03;;;1.30;;
44722;SDS011;30451;48.638;10.624;2022-10-31T06:07:00;2.28;;;1.40;;
44722;SDS011;30451;48.638;10.624;2022-10-31T06:09:25;3.00;;;1.80;;
44722;SDS011;30451;48.638;10.624;2022-10-31T06:11:51;2.00;;;1.40;;
44722;SDS011;30451;48.638;10.624;2022-10-31T06:14:16;1.90;;;1.20;;
44722;SDS011;30451;48.638;10.624;2022-10-31T06:16:42;2.33;;;1.30;;
44722;SDS011;30451;48.638;10.624;2022-10-31T06:19:08;1.90;;;1.20;;
44722;SDS011;30451;48.638;10.624;2022-10-31T06:21:33;1.50;;;1.10;;
44722;SDS011;30451;48.638;10.624;2022-10-31T06:23:59;2.35;;;1.23;;
44722;SDS011;30451;48.638;10.624;2022-10-31T06:26:24;2.20;;;1.23;;
44722;SDS011;30451;48.638;10.624;2022-10-31T06:28:50;1.80;;;1.20;;
44722;SDS011;30451;48.638;10.624;2022-10-31T06:31:15;1.70;;;1.10;;
44722;SDS011;30451;48.638;10.624;2022-10-31T06:33:41;1.80;;;1.20;;
44722;SDS011;30451;48.638;10.624;2022-10-31T06:36:08;2.15;;;1.25;;
44722;SDS011;30451;48.638;10.624;2022-10-31T06:38:34;1.58;;;1.13;;
44722;SDS011;30451;48.638;10.624;2022-10-31T06:41:03;1.92;;;1.20;;
44722;SDS011;30451;48.638;10.624;2022-10-31T06:43:32;1.60;;;1.10;;
44722;SDS011;30451;48.638;10.624;2022-10-31T06:45:57;1.90;;;1.30;;
44722;SDS011;30451;48.638;10.624;2022-10-31T06:48:26;2.85;;;1.33;;
44722;SDS011;30451;48.638;10.624;2022-10-31T06:50:52;2.10;;;1.40;;
44722;SDS011;30451;48.638;10.624;2022-10-31T06:53:17;1.70;;;1.20;;
44722;SDS011;30451;48.638;10.624;2022-10-31T06:55:43;1.23;;;1.02;;
44722;SDS011;30451;48.638;10.624;2022-10-31T06:58:09;1.80;;;1.20;;
44722;SDS011;30451;48.638;10.624;2022-10-31T07:00:35;1.80;;;1.25;;
44722;SDS011;30451;48.638;10.624;2022-10-31T07:03:05;1.73;;;1.23;;
44722;SDS011;30451;48.638;10.624;2022-10-31T07:05:34;2.10;;;1.30;;
44722;SDS011;30451;48.638;10.624;2022-10-31T07:08:00;1.50;;;1.15;;
44722;SDS011;30451;48.638;10.624;2022-10-31T07:10:29;1.42;;;1.10;;
44722;SDS011;30451;48.638;10.624;2022-10-31T07:12:57;1.88;;;1.27;;
44722;SDS011;30451;48.638;10.624;2022-10-31T07:15:24;1.60;;;1.13;;
44722;SDS011;30451;48.638;10.624;2022-10-31T07:17:51;2.40;;;1.20;;
44722;SDS011;30451;48.638;10.624;2022-10-31T07:20:16;2.15;;;1.20;;
44722;SDS011;30451;48.638;10.624;2022-10-31T07:22:43;1.55;;;1.10;;
44722;SDS011;30451;48.638;10.624;2022-10-31T07:25:09;1.40;;;1.08;;
44722;SDS011;30451;48.638;10.624;2022-10-31T07:27:35;1.73;;;1.10;;
44722;SDS011;30451;48.638;10.624;2022-10-31T07:30:02;1.70;;;1.13;;
44722;SDS011;30451;48.638;10.624;2022-10-31T07:32:36;1.85;;;1.13;;
44722;SDS011;30451;48.638;10.624;2022-10-31T07:35:03;1.50;;;1.10;;
44722;SDS011;30451;48.638;10.624;2022-10-31T07:37:28;1.60;;;1.20;;
44722;SDS011;30451;48.638;10.624;2022-10-31T07:39:54;1.60;;;1.20;;
44722;SDS011;30451;48.638;10.624;2022-10-31T07:42:20;1.80;;;1.48;;
44722;SDS011;30451;48.638;10.624;2022-10-31T07:44:45;2.35;;;1.48;;
44722;SDS011;30451;48.638;10.624;2022-10-31T07:47:11;2.10;;;1.30;;
44722;SDS011;30451;48.638;10.624;2022-10-31T07:49:36;1.60;;;1.10;;
44722;SDS011;30451;48.638;10.624;2022-10-31T07:52:02;1.77;;;1.05;;
44722;SDS011;30451;48.638;10.624;2022-10-31T07:54:28;1.60;;;1.10;;
44722;SDS011;30451;48.638;10.624;2022-10-31T07:56:53;1.80;;;1.30;;
44722;SDS011;30451;48.638;10.624;2022-10-31T07:59:19;1.80;;;1.20;;
44722;SDS011;30451;48.638;10.624;2022-10-31T08:01:44;1.50;;;1.20;;
44722;SDS011;30451;48.638;10.624;2022-10-31T08:04:10;2.13;;;1.38;;
44722;SDS011;30451;48.638;10.624;2022-10-31T08:06:36;2.20;;;1.20;;
44722;SDS011;30451;48.638;10.624;2022-10-31T08:09:01;2.15;;;1.20;;
44722;SDS011;30451;48.638;10.624;2022-10-31T08:11:27;1.27;;;1.00;;
44722;SDS011;30451;48.638;10.624;2022-10-31T08:13:52;1.58;;;1.10;;
44722;SDS011;30451;48.638;10.624;2022-10-31T08:16:18;1.90;;;1.05;;
44722;SDS011;30451;48.638;10.624;2022-10-31T08:18:43;2.08;;;1.15;;
44722;SDS011;30451;48.638;10.624;2022-10-31T08:21:09;2.13;;;1.08;;
44722;SDS011;30451;48.638;10.624;2022-10-31T08:23:35;1.92;;;1.25;;
44722;SDS011;30451;48.638;10.624;2022-10-31T08:26:01;1.25;;;1.00;;
44722;SDS011;30451;48.638;10.624;2022-10-31T08:28:26;1.95;;;1.15;;
44722;SDS011;30451;48.638;10.624;2022-10-31T08:30:52;1.40;;;1.00;;
44722;SDS011;30451;48.638;10.624;2022-10-31T08:33:18;1.65;;;1.23;;
44722;SDS011;30451;48.638;10.624;2022-10-31T08:35:44;2.53;;;1.10;;
44722;SDS011;30451;48.638;10.624;2022-10-31T08:38:10;2.47;;;1.23;;
44722;SDS011;30451;48.638;10.624;2022-10-31T08:40:37;1.77;;;1.10;;
44722;SDS011;30451;48.638;10.624;2022-10-31T08:43:04;3.03;;;1.10;;
44722;SDS011;30451;48.638;10.624;2022-10-31T08:45:32;2.00;;;1.30;;
44722;SDS011;30451;48.638;10.624;2022-10-31T08:48:20;2.00;;;1.30;;
44722;SDS011;30451;48.638;10.624;2022-10-31T08:50:44;2.05;;;1.10;;
44722;SDS011;30451;48.638;10.624;2022-10-31T08:53:12;2.03;;;1.20;;
44722;SDS011;30451;48.638;10.624;2022-10-31T08:55:42;1.70;;;1.00;;
44722;SDS011;30451;48.638;10.624;2022-10-31T08:58:10;1.35;;;1.00;;
44722;SDS011;30451;48.638;10.624;2022-10-31T09:00:42;1.38;;;1.00;;
44722;SDS011;30451;48.638;10.624;2022-10-31T09:03:09;1.48;;;1.00;;
44722;SDS011;30451;48.638;10.624;2022-10-31T09:05:37;2.00;;;1.10;;
44722;SDS011;30451;48.638;10.624;2022-10-31T09:08:03;2.60;;;1.20;;
44722;SDS011;30451;48.638;10.624;2022-10-31T09:10:30;1.75;;;1.10;;
44722;SDS011;30451;48.638;10.624;2022-10-31T09:15:23;2.97;;;1.00;;
44722;SDS011;30451;48.638;10.624;2022-10-31T09:17:50;1.65;;;1.10;;
44722;SDS011;30451;48.638;10.624;2022-10-31T09:20:15;1.73;;;1.10;;
44722;SDS011;30451;48.638;10.624;2022-10-31T09:22:41;1.67;;;1.00;;
44722;SDS011;30451;48.638;10.624;2022-10-31T09:25:07;2.10;;;1.20;;
44722;SDS011;30451;48.638;10.624;2022-10-31T09:27:33;1.80;;;1.10;;
44722;SDS011;30451;48.638;10.624;2022-10-31T09:29:59;2.33;;;1.00;;
44722;SDS011;30451;48.638;10.624;2022-10-31T09:32:24;1.63;;;1.00;;
44722;SDS011;30451;48.638;10.624;2022-10-31T09:34:50;1.90;;;1.05;;
44722;SDS011;30451;48.638;10.624;2022-10-31T09:37:16;1.50;;;1.10;;
44722;SDS011;30451;48.638;10.624;2022-10-31T09:39:41;1.60;;;1.02;;
44722;SDS011;30451;48.638;10.624;2022-10-31T09:45:39;1.83;;;1.10;;
44722;SDS011;30451;48.638;10.624;2022-10-31T09:47:59;1.23;;;0.85;;
44722;SDS011;30451;48.638;10.624;2022-10-31T09:53:02;1.42;;;1.00;;
44722;SDS011;30451;48.638;10.624;2022-10-31T09:55:44;1.50;;;1.00;;
44722;SDS011;30451;48.638;10.624;2022-10-31T09:58:16;1.48;;;1.00;;
44722;SDS011;30451;48.638;10.624;2022-10-31T10:00:45;1.70;;;1.10;;
44722;SDS011;30451;48.638;10.624;2022-10-31T10:03:29;1.40;;;1.08;;
44722;SDS011;30451;48.638;10.624;2022-10-31T10:06:06;2.92;;;1.23;;
44722;SDS011;30451;48.638;10.624;2022-10-31T10:08:46;1.35;;;1.10;;
44722;SDS011;30451;48.638;10.624;2022-10-31T10:21:32;1.60;;;1.00;;
44722;SDS011;30451;48.638;10.624;2022-10-31T10:30:04;3.03;;;1.00;;
44722;SDS011;30451;48.638;10.624;2022-10-31T10:38:24;3.25;;;1.25;;
44722;SDS011;30451;48.638;10.624;2022-10-31T10:40:52;1.70;;;1.15;;
44722;SDS011;30451;48.638;10.624;2022-10-31T10:43:34;5.43;;;1.40;;
44722;SDS011;30451;48.638;10.624;2022-10-31T10:54:35;2.67;;;1.20;;
44722;SDS011;30451;48.638;10.624;2022-10-31T11:00:20;1.90;;;1.10;;
44722;SDS011;30451;48.638;10.624;2022-10-31T11:02:47;1.55;;;1.05;;
44722;SDS011;30451;48.638;10.624;2022-10-31T11:05:33;1.80;;;1.10;;
44722;SDS011;30451;48.638;10.624;2022-10-31T11:08:04;1.80;;;1.20;;
44722;SDS011;30451;48.638;10.624;2022-10-31T11:10:30;2.50;;;1.30;;
44722;SDS011;30451;48.638;10.624;2022-10-31T11:13:05;2.40;;;1.20;;
44722;SDS011;30451;48.638;10.624;2022-10-31T11:15:55;1.75;;;1.20;;
44722;SDS011;30451;48.638;10.624;2022-10-31T11:18:42;2.30;;;1.38;;
44722;SDS011;30451;48.638;10.624;2022-10-31T11:21:28;2.33;;;1.20;;
44722;SDS011;30451;48.638;10.624;2022-10-31T11:26:36;1.80;;;1.20;;
44722;SDS011;30451;48.638;10.624;2022-10-31T11:29:03;2.47;;;1.40;;
44722;SDS011;30451;48.638;10.624;2022-10-31T11:31:30;2.75;;;1.30;;
44722;SDS011;30451;48.638;10.624;2022-10-31T11:33:59;1.98;;;1.30;;
44722;SDS011;30451;48.638;10.624;2022-10-31T11:36:29;1.70;;;1.17;;
44722;SDS011;30451;48.638;10.624;2022-10-31T11:38:56;1.75;;;1.30;;
44722;SDS011;30451;48.638;10.624;2022-10-31T11:41:28;2.20;;;1.63;;
44722;SDS011;30451;48.638;10.624;2022-10-31T11:44:13;2.70;;;1.30;;
44722;SDS011;30451;48.638;10.624;2022-10-31T11:46:55;1.50;;;1.20;;
44722;SDS011;30451;48.638;10.624;2022-10-31T11:49:30;1.80;;;1.17;;
44722;SDS011;30451;48.638;10.624;2022-10-31T11:57:33;3.55;;;1.27;;
44722;SDS011;30451;48.638;10.624;2022-10-31T12:05:55;1.90;;;1.30;;
44722;SDS011;30451;48.638;10.624;2022-10-31T12:08:29;1.58;;;1.05;;
44722;SDS011;30451;48.638;10.624;2022-10-31T12:10:59;2.38;;;1.40;;
44722;SDS011;30451;48.638;10.624;2022-10-31T12:16:24;2.15;;;1.15;;
44722;SDS011;30451;48.638;10.624;2022-10-31T12:21:45;1.95;;;1.30;;
44722;SDS011;30451;48.638;10.624;2022-10-31T12:24:45;1.88;;;1.10;;
44722;SDS011;30451;48.638;10.624;2022-10-31T12:30:18;1.85;;;1.30;;
44722;SDS011;30451;48.638;10.624;2022-10-31T12:33:02;1.58;;;1.10;;
44722;SDS011;30451;48.638;10.624;2022-10-31T12:35:58;2.70;;;1.33;;
44722;SDS011;30451;48.638;10.624;2022-10-31T12:41:22;2.15;;;1.42;;
44722;SDS011;30451;48.638;10.624;2022-10-31T12:52:51;2.47;;;1.35;;
44722;SDS011;30451;48.638;10.624;2022-10-31T12:55:40;2.10;;;1.30;;
44722;SDS011;30451;48.638;10.624;2022-10-31T13:00:44;2.30;;;1.33;;
44722;SDS011;30451;48.638;10.624;2022-10-31T13:05:48;2.38;;;1.33;;
44722;SDS011;30451;48.638;10.624;2022-10-31T13:08:20;2.20;;;1.38;;
44722;SDS011;30451;48.638;10.624;2022-10-31T13:11:02;1.85;;;1.20;;
44722;SDS011;30451;48.638;10.624;2022-10-31T13:13:56;1.65;;;1.20;;
44722;SDS011;30451;48.638;10.624;2022-10-31T13:16:34;2.60;;;1.30;;
44722;SDS011;30451;48.638;10.624;2022-10-31T13:24:39;1.95;;;1.30;;
44722;SDS011;30451;48.638;10.624;2022-10-31T13:27:23;2.17;;;1.20;;
44722;SDS011;30451;48.638;10.624;2022-10-31T13:32:17;3.30;;;1.50;;
44722;SDS011;30451;48.638;10.624;2022-10-31T13:34:45;2.05;;;1.30;;
44722;SDS011;30451;48.638;10.624;2022-10-31T13:42:49;1.67;;;1.20;;
44722;SDS011;30451;48.638;10.624;2022-10-31T13:45:25;2.20;;;1.25;;
44722;SDS011;30451;48.638;10.624;2022-10-31T13:47:55;1.70;;;1.25;;
44722;SDS011;30451;48.638;10.624;2022-10-31T13:51:03;2.13;;;1.20;;
44722;SDS011;30451;48.638;10.624;2022-10-31T13:56:48;1.60;;;1.15;;
44722;SDS011;30451;48.638;10.624;2022-10-31T13:59:16;1.50;;;1.00;;
44722;SDS011;30451;48.638;10.624;2022-10-31T14:01:51;3.30;;;1.30;;
44722;SDS011;30451;48.638;10.624;2022-10-31T14:04:19;2.33;;;1.42;;
44722;SDS011;30451;48.638;10.624;2022-10-31T14:06:57;2.40;;;1.40;;
44722;SDS011;30451;48.638;10.624;2022-10-31T14:09:33;2.22;;;1.23;;
44722;SDS011;30451;48.638;10.624;2022-10-31T14:12:03;1.92;;;1.30;;
44722;SDS011;30451;48.638;10.624;2022-10-31T14:14:46;1.67;;;1.20;;
44722;SDS011;30451;48.638;10.624;2022-10-31T14:17:16;1.95;;;1.40;;
44722;SDS011;30451;48.638;10.624;2022-10-31T14:22:43;2.30;;;1.38;;
44722;SDS011;30451;48.638;10.624;2022-10-31T14:27:59;1.88;;;1.38;;
44722;SDS011;30451;48.638;10.624;2022-10-31T14:30:27;1.75;;;1.30;;
44722;SDS011;30451;48.638;10.624;2022-10-31T14:32:58;1.70;;;1.27;;
44722;SDS011;30451;48.638;10.624;2022-10-31T14:44:55;1.85;;;1.30;;
44722;SDS011;30451;48.638;10.624;2022-10-31T14:53:08;2.33;;;1.20;;
44722;SDS011;30451;48.638;10.624;2022-10-31T14:55:41;3.50;;;1.23;;
44722;SDS011;30451;48.638;10.624;2022-10-31T14:58:12;2.15;;;1.48;;
44722;SDS011;30451;48.638;10.624;2022-10-31T15:00:42;2.17;;;1.40;;
44722;SDS011;30451;48.638;10.624;2022-10-31T15:06:10;2.85;;;1.38;;
44722;SDS011;30451;48.638;10.624;2022-10-31T15:08:49;1.67;;;1.23;;
44722;SDS011;30451;48.638;10.624;2022-10-31T15:11:25;2.33;;;1.50;;
44722;SDS011;30451;48.638;10.624;2022-10-31T15:13:53;2.03;;;1.30;;
44722;SDS011;30451;48.638;10.624;2022-10-31T15:16:22;3.13;;;1.30;;
44722;SDS011;30451;48.638;10.624;2022-10-31T15:18:53;2.03;;;1.30;;
44722;SDS011;30451;48.638;10.624;2022-10-31T15:21:23;2.35;;;1.20;;
44722;SDS011;30451;48.638;10.624;2022-10-31T15:23:50;2.10;;;1.30;;
44722;SDS011;30451;48.638;10.624;2022-10-31T15:26:18;2.15;;;1.40;;
44722;SDS011;30451;48.638;10.624;2022-10-31T15:28:45;2.58;;;1.40;;
44722;SDS011;30451;48.638;10.624;2022-10-31T15:31:22;3.22;;;1.50;;
44722;SDS011;30451;48.638;10.624;2022-10-31T15:33:48;2.03;;;1.40;;
44722;SDS011;30451;48.638;10.624;2022-10-31T15:36:22;1.58;;;1.08;;
44722;SDS011;30451;48.638;10.624;2022-10-31T15:38:49;2.35;;;1.40;;
44722;SDS011;30451;48.638;10.624;2022-10-31T15:41:23;3.00;;;1.50;;
44722;SDS011;30451;48.638;10.624;2022-10-31T15:44:00;1.98;;;1.30;;
44722;SDS011;30451;48.638;10.624;2022-10-31T15:46:53;2.08;;;1.35;;
44722;SDS011;30451;48.638;10.624;2022-10-31T15:52:14;3.00;;;1.30;;
44722;SDS011;30451;48.638;10.624;2022-10-31T15:54:54;2.35;;;1.60;;
44722;SDS011;30451;48.638;10.624;2022-10-31T15:57:24;2.55;;;1.55;;
44722;SDS011;30451;48.638;10.624;2022-10-31T15:59:53;3.00;;;1.50;;
44722;SDS011;30451;48.638;10.624;2022-10-31T16:02:21;2.63;;;1.50;;
44722;SDS011;30451;48.638;10.624;2022-10-31T16:07:19;2.20;;;1.40;;
44722;SDS011;30451;48.638;10.624;2022-10-31T16:09:55;2.13;;;1.35;;
44722;SDS011;30451;48.638;10.624;2022-10-31T16:12:28;2.17;;;1.38;;
44722;SDS011;30451;48.638;10.624;2022-10-31T16:14:59;2.38;;;1.40;;
44722;SDS011;30451;48.638;10.624;2022-10-31T16:17:25;2.72;;;1.50;;
44722;SDS011;30451;48.638;10.624;2022-10-31T16:19:59;2.80;;;1.58;;
44722;SDS011;30451;48.638;10.624;2022-10-31T16:22:29;2.85;;;1.40;;
44722;SDS011;30451;48.638;10.624;2022-10-31T16:25:10;2.78;;;1.50;;
44722;SDS011;30451;48.638;10.624;2022-10-31T16:27:38;3.35;;;1.70;;
44722;SDS011;30451;48.638;10.624;2022-10-31T16:33:05;2.33;;;1.52;;
44722;SDS011;30451;48.638;10.624;2022-10-31T16:35:45;3.65;;;1.60;;
44722;SDS011;30451;48.638;10.624;2022-10-31T16:38:10;2.40;;;1.60;;
44722;SDS011;30451;48.638;10.624;2022-10-31T16:40:37;2.63;;;1.60;;
44722;SDS011;30451;48.638;10.624;2022-10-31T16:43:03;2.40;;;1.50;;
44722;SDS011;30451;48.638;10.624;2022-10-31T16:45:30;3.75;;;1.70;;
44722;SDS011;30451;48.638;10.624;2022-10-31T16:48:01;2.67;;;1.58;;
44722;SDS011;30451;48.638;10.624;2022-10-31T16:50:33;2.78;;;1.60;;
44722;SDS011;30451;48.638;10.624;2022-10-31T16:52:59;2.30;;;1.60;;
44722;SDS011;30451;48.638;10.624;2022-10-31T16:55:25;5.10;;;1.92;;
44722;SDS011;30451;48.638;10.624;2022-10-31T16:57:51;2.55;;;1.63;;
44722;SDS011;30451;48.638;10.624;2022-10-31T17:00:20;3.47;;;1.67;;
44722;SDS011;30451;48.638;10.624;2022-10-31T17:02:47;2.30;;;1.50;;
44722;SDS011;30451;48.638;10.624;2022-10-31T17:05:16;2.47;;;1.60;;
44722;SDS011;30451;48.638;10.624;2022-10-31T17:07:44;2.30;;;1.60;;
44722;SDS011;30451;48.638;10.624;2022-10-31T17:10:10;2.22;;;1.50;;
44722;SDS011;30451;48.638;10.624;2022-10-31T17:12:38;2.67;;;1.88;;
44722;SDS011;30451;48.638;10.624;2022-10-31T17:15:06;2.92;;;1.75;;
44722;SDS011;30451;48.638;10.624;2022-10-31T17:17:44;2.83;;;1.85;;
44722;SDS011;30451;48.638;10.624;2022-10-31T17:20:20;3.13;;;1.60;;
44722;SDS011;30451;48.638;10.624;2022-10-31T17:22:50;2.95;;;1.70;;
44722;SDS011;30451;48.638;10.624;2022-10-31T17:25:17;2.95;;;1.80;;
44722;SDS011;30451;48.638;10.624;2022-10-31T17:27:47;2.92;;;1.73;;